Why, Arizona
Current Conditions -  °F | °C
As of 8:55 AM on Friday 31 Oct 2014 (Local Time) from KGXF Reporting Station
Few Clouds Few Clouds  
Wind Chill: 75°   Ceiling: Unl
Heat Index: 75°   Visibility: 10mi
Dew Point: 43°   Wind: 1mph
Humidity: 31%   Direction: 70°ENE
Pressure: 29.92"   Gusts: NA
Location:  32.5298°N, 112.879°W
Report Text: KGXF 311555Z 07001KT 10SM FEW150 24/06 A2992 RMK SLP122
Loading
Personal Weather Stations






























Interactive Weather Map
Tropical Storm Tracking
New forecast layout! Learn more

10-Day Weather Forecast

Advertisements
Track Severe Weather on mobile